createdAt,value
2023-04-06T00:03:31.766Z,97249.22
2023-04-06T00:07:34.575Z,97248.00
2023-04-06T00:11:34.973Z,97244.22
2023-04-06T00:15:38.503Z,97253.25
2023-04-06T00:19:38.801Z,97244.47
2023-04-06T00:23:41.863Z,97238.97
2023-04-06T00:27:43.157Z,97243.00
2023-04-06T00:31:46.141Z,97234.16
2023-04-06T00:35:46.780Z,97236.50
2023-04-06T00:39:47.249Z,97235.94
2023-04-06T00:43:47.857Z,97233.47
2023-04-06T00:47:51.175Z,97235.66
2023-04-06T00:51:51.731Z,97229.78
2023-04-06T00:55:52.463Z,97235.56
2023-04-06T00:59:53.964Z,97238.47
2023-04-06T01:03:57.439Z,97231.03
2023-04-06T01:07:57.866Z,97234.81
2023-04-06T01:12:03.503Z,97232.53
2023-04-06T01:16:07.020Z,97226.81
2023-04-06T01:20:27.537Z,97227.88
2023-04-06T01:24:31.014Z,97231.56
2023-04-06T01:28:40.216Z,97234.44
2023-04-06T01:32:51.475Z,97207.94
2023-04-06T01:37:02.082Z,97226.22
2023-04-06T01:41:07.286Z,97223.47
2023-04-06T01:45:19.434Z,97220.72
2023-04-06T01:49:21.018Z,97219.44
2023-04-06T01:53:26.737Z,97207.22
2023-04-06T01:57:36.426Z,97210.53
2023-04-06T02:01:51.216Z,97217.38
2023-04-06T02:05:52.566Z,97184.91
2023-04-06T02:10:05.410Z,97212.41
2023-04-06T02:14:14.183Z,97211.47
2023-04-06T02:18:21.311Z,97204.78
2023-04-06T02:22:22.023Z,97209.25
2023-04-06T02:26:22.567Z,97206.41
2023-04-06T02:30:25.706Z,97199.84
2023-04-06T02:34:26.378Z,97202.31
2023-04-06T02:38:28.404Z,97202.50
2023-04-06T02:42:28.775Z,97199.56
2023-04-06T02:46:32.831Z,97205.22
2023-04-06T02:50:33.559Z,97204.22
2023-04-06T02:54:37.904Z,97199.69
2023-04-06T02:58:38.804Z,97200.19
2023-04-06T03:02:42.314Z,97203.94
2023-04-06T03:06:46.841Z,97204.78
2023-04-06T03:10:56.866Z,97209.63
2023-04-06T03:15:06.039Z,97212.44
2023-04-06T03:19:09.879Z,97203.22
2023-04-06T03:23:10.973Z,97213.81
2023-04-06T03:27:14.925Z,97206.03
2023-04-06T03:31:16.030Z,97212.91
2023-04-06T03:35:38.104Z,97217.59
2023-04-06T03:39:39.252Z,97223.19
2023-04-06T03:43:40.139Z,97219.78
2023-04-06T03:47:41.307Z,97230.25
2023-04-06T03:51:45.961Z,97232.31
2023-04-06T03:55:46.637Z,97228.34
2023-04-06T03:59:47.320Z,97233.31
2023-04-06T04:03:50.984Z,97233.31
2023-04-06T04:07:54.928Z,97219.56
2023-04-06T04:11:59.044Z,97236.19
2023-04-06T04:15:59.684Z,97226.25
2023-04-06T04:20:00.710Z,97234.78
2023-04-06T04:24:03.686Z,97237.56
2023-04-06T04:28:06.855Z,97239.56
2023-04-06T04:32:08.730Z,97229.00
2023-04-06T04:36:11.346Z,97232.31
2023-04-06T04:40:19.123Z,97240.41
2023-04-06T04:44:31.430Z,97228.38
2023-04-06T04:48:32.388Z,97232.97
2023-04-06T04:52:38.446Z,97228.13
2023-04-06T04:56:53.942Z,97237.50
2023-04-06T05:01:08.513Z,97233.13
2023-04-06T05:05:10.689Z,97236.84
2023-04-06T05:09:12.525Z,97234.28
2023-04-06T05:13:18.626Z,97234.88
2023-04-06T05:17:21.756Z,97232.03
2023-04-06T05:21:23.377Z,97241.91
2023-04-06T05:25:30.955Z,97240.28
2023-04-06T05:29:39.915Z,97258.00
2023-04-06T05:33:41.328Z,97255.56
2023-04-06T05:37:47.440Z,97245.34
2023-04-06T05:41:48.387Z,97251.41
2023-04-06T05:45:54.100Z,97251.03
2023-04-06T05:49:55.213Z,97255.09
2023-04-06T05:54:05.282Z,97254.09
2023-04-06T05:58:09.377Z,97259.59
2023-04-06T06:02:13.233Z,97265.44
2023-04-06T06:06:17.676Z,97265.59
2023-04-06T06:10:39.365Z,97272.25
2023-04-06T06:14:41.943Z,97267.75
2023-04-06T06:18:45.278Z,97268.81
2023-04-06T06:22:46.151Z,97259.72
2023-04-06T06:26:53.571Z,97268.91
2023-04-06T06:30:57.141Z,97258.16
2023-04-06T06:35:02.218Z,97253.25
2023-04-06T06:39:05.675Z,97263.84
2023-04-06T06:43:06.839Z,97265.94
2023-04-06T06:47:23.515Z,97270.50
2023-04-06T06:51:26.571Z,97267.75
2023-04-06T06:55:27.935Z,97273.50
2023-04-06T06:59:28.635Z,97272.72
2023-04-06T07:03:29.262Z,97265.91
2023-04-06T07:07:32.767Z,97269.97
2023-04-06T07:11:33.593Z,97273.66
2023-04-06T07:15:35.019Z,97271.63
2023-04-06T07:19:35.992Z,97259.47
2023-04-06T07:23:39.179Z,97275.66
2023-04-06T07:27:41.191Z,97279.72
2023-04-06T07:31:41.820Z,97279.63
2023-04-06T07:35:42.854Z,97278.38
2023-04-06T07:39:47.861Z,97283.19
2023-04-06T07:43:48.841Z,97279.50
2023-04-06T07:47:51.247Z,97274.84
2023-04-06T07:51:52.025Z,97268.22
2023-04-06T07:55:55.130Z,97268.59
2023-04-06T07:59:55.940Z,97271.06
2023-04-06T08:03:56.925Z,97267.59
2023-04-06T08:07:57.692Z,97255.75
2023-04-06T08:12:01.006Z,97260.84
2023-04-06T08:16:06.993Z,97261.38
2023-04-06T08:20:08.292Z,97248.19
2023-04-06T08:24:10.174Z,97260.44
2023-04-06T08:28:14.241Z,97260.56
2023-04-06T08:32:16.196Z,97249.13
2023-04-06T08:36:23.838Z,97251.34
2023-04-06T08:40:25.732Z,97250.63
2023-04-06T08:44:30.937Z,97245.50
2023-04-06T08:48:35.189Z,97244.94
2023-04-06T08:52:39.865Z,97248.81
2023-04-06T08:56:45.333Z,97242.16
2023-04-06T09:00:49.000Z,97246.81
2023-04-06T09:04:52.652Z,97245.34
2023-04-06T09:08:53.174Z,97242.22
2023-04-06T09:12:54.521Z,97228.78
2023-04-06T09:17:01.119Z,97229.25
2023-04-06T09:21:11.932Z,97229.16
2023-04-06T09:25:22.042Z,97229.75
2023-04-06T09:29:30.048Z,97230.69
2023-04-06T09:33:33.264Z,97223.97
2023-04-06T09:37:33.715Z,97220.25
2023-04-06T09:41:37.020Z,97211.94
2023-04-06T09:45:41.638Z,97207.91
2023-04-06T09:49:45.053Z,97224.63
2023-04-06T09:53:56.958Z,97201.53
2023-04-06T09:58:08.855Z,97204.69
2023-04-06T10:02:17.303Z,97205.69
2023-04-06T10:06:28.497Z,97215.22
2023-04-06T10:10:30.618Z,97211.13
2023-04-06T10:14:31.896Z,97199.47
2023-04-06T10:18:33.189Z,97197.66
2023-04-06T10:22:58.041Z,97182.50
2023-04-06T10:27:12.387Z,97180.19
2023-04-06T10:31:13.502Z,97166.66
2023-04-06T10:35:19.541Z,97168.22
2023-04-06T10:39:30.609Z,97168.81
2023-04-06T10:43:39.367Z,97165.63
2023-04-06T10:47:44.875Z,97166.56
2023-04-06T10:51:48.952Z,97159.75
2023-04-06T10:55:54.803Z,97160.00
2023-04-06T10:59:59.062Z,97151.06
2023-04-06T11:04:04.274Z,97157.13
2023-04-06T11:08:07.848Z,97144.53
2023-04-06T11:12:11.921Z,97147.25
2023-04-06T11:16:18.635Z,97140.53
2023-04-06T11:20:20.949Z,97127.91
2023-04-06T11:24:26.670Z,97128.47
2023-04-06T11:28:30.251Z,97123.41
2023-04-06T11:32:30.924Z,97122.44
2023-04-06T11:36:32.654Z,97117.09
2023-04-06T11:40:35.491Z,97112.03
2023-04-06T11:44:41.572Z,97108.88
2023-04-06T11:48:49.455Z,97095.75
2023-04-06T11:53:03.994Z,97096.31
2023-04-06T11:57:07.247Z,97104.75
2023-04-06T12:01:13.489Z,97103.47
2023-04-06T12:05:14.799Z,97104.72
2023-04-06T12:09:15.219Z,97101.06
2023-04-06T12:13:16.139Z,97098.75
2023-04-06T12:17:19.500Z,97092.00
2023-04-06T12:21:20.327Z,97090.03
2023-04-06T12:25:24.072Z,97082.81
2023-04-06T12:29:26.139Z,97081.75
2023-04-06T12:33:31.999Z,97068.56
2023-04-06T12:37:32.782Z,97055.97
2023-04-06T12:41:36.055Z,97060.88
2023-04-06T12:45:38.243Z,97049.00
2023-04-06T12:49:44.167Z,97054.19
2023-04-06T12:53:46.626Z,97042.59
2023-04-06T12:57:49.672Z,97053.84
2023-04-06T13:01:53.826Z,97043.69
2023-04-06T13:05:57.219Z,97036.28
2023-04-06T13:09:57.884Z,97042.81
2023-04-06T13:14:01.534Z,97034.69
2023-04-06T13:18:02.157Z,97045.09
2023-04-06T13:22:05.638Z,97034.50
2023-04-06T13:26:11.537Z,97034.56
2023-04-06T13:30:16.404Z,97037.00
2023-04-06T13:34:18.069Z,97024.63
2023-04-06T13:38:21.952Z,97032.63
2023-04-06T13:42:22.733Z,97026.59
2023-04-06T13:46:25.382Z,97030.63
2023-04-06T13:50:26.045Z,97017.84
2023-04-06T13:54:31.727Z,97024.97
2023-04-06T13:58:37.472Z,97012.47
2023-04-06T14:02:38.178Z,96996.38
2023-04-06T14:06:39.024Z,96973.34
2023-04-06T14:10:45.994Z,97003.91
2023-04-06T14:14:46.837Z,96997.28
2023-04-06T14:18:51.931Z,97003.81
2023-04-06T14:22:54.103Z,96998.78
2023-04-06T14:26:57.866Z,97005.91
2023-04-06T14:31:01.500Z,97005.22
2023-04-06T14:35:02.804Z,96993.03
2023-04-06T14:39:04.416Z,96997.31
2023-04-06T14:43:07.892Z,96994.38
2023-04-06T14:47:08.943Z,96991.88
2023-04-06T14:51:09.766Z,96983.31
2023-04-06T14:55:11.314Z,96982.16
2023-04-06T14:59:14.699Z,96973.47
2023-04-06T15:03:21.611Z,96984.41
2023-04-06T15:07:22.477Z,96969.88
2023-04-06T15:11:23.113Z,96961.53
2023-04-06T15:15:28.086Z,96974.81
2023-04-06T15:19:29.129Z,96972.34
2023-04-06T15:23:31.443Z,96967.69
2023-04-06T15:27:33.233Z,96969.34
2023-04-06T15:31:38.130Z,96984.63
2023-04-06T15:35:43.934Z,96971.69
2023-04-06T15:39:44.631Z,96983.50
2023-04-06T15:43:49.124Z,96979.84
2023-04-06T15:47:54.514Z,96978.91
2023-04-06T15:51:55.588Z,96986.50
2023-04-06T15:56:02.041Z,96978.66
2023-04-06T16:00:03.453Z,96964.44
2023-04-06T16:04:15.121Z,96964.78
2023-04-06T16:08:16.111Z,96965.84
2023-04-06T16:12:16.788Z,96971.19
2023-04-06T16:16:21.340Z,96961.22
2023-04-06T16:20:25.384Z,96967.38
2023-04-06T16:24:25.775Z,96964.09
2023-04-06T16:28:26.169Z,96972.78
2023-04-06T16:32:30.078Z,96976.59
2023-04-06T16:36:34.854Z,96961.19
2023-04-06T16:40:35.242Z,96981.28
2023-04-06T16:44:38.823Z,96978.09
2023-04-06T16:53:08.362Z,96984.94
2023-04-06T16:57:08.857Z,96979.03
2023-04-06T17:01:09.243Z,96983.75
2023-04-06T17:05:10.521Z,96976.78
2023-04-06T17:09:13.526Z,96970.31
2023-04-06T17:13:13.863Z,96975.28
2023-04-06T17:17:14.116Z,96947.81
2023-04-06T17:21:14.724Z,96959.34
2023-04-06T17:25:17.865Z,96975.44
2023-04-06T17:29:18.209Z,96986.56
2023-04-06T17:33:19.253Z,96988.13
2023-04-06T17:37:19.464Z,96992.00
2023-04-06T17:41:22.976Z,96993.22
2023-04-06T17:45:23.414Z,96995.97
2023-04-06T17:49:23.597Z,96979.09
2023-04-06T17:53:24.126Z,96984.53
2023-04-06T17:57:27.260Z,97011.56
2023-04-06T18:01:27.560Z,97012.88
2023-04-06T18:05:28.967Z,97018.44
2023-04-06T18:09:29.468Z,97011.28
2023-04-06T18:13:32.555Z,97026.69
2023-04-06T18:17:33.038Z,97030.44
2023-04-06T18:21:34.574Z,97026.09
2023-04-06T18:25:34.997Z,97038.63
2023-04-06T18:29:37.925Z,97036.78
2023-04-06T18:33:38.136Z,97042.59
2023-04-06T18:37:38.496Z,97041.84
2023-04-06T18:41:39.429Z,97051.47
2023-04-06T18:45:43.723Z,97038.41
2023-04-06T18:49:44.011Z,97036.81
2023-04-06T18:53:44.464Z,97047.56
2023-04-06T18:57:44.702Z,97053.44
2023-04-06T19:01:51.380Z,97049.75
2023-04-06T19:05:53.181Z,97055.50
2023-04-06T19:09:53.885Z,97068.91
2023-04-06T19:13:54.456Z,97064.25
2023-04-06T19:17:57.998Z,97056.38
2023-04-06T19:22:00.854Z,97066.44
2023-04-06T19:26:01.125Z,97032.06
2023-04-06T19:30:01.723Z,97067.44
2023-04-06T19:34:04.906Z,97071.06
2023-04-06T19:38:05.458Z,97071.78
2023-04-06T19:42:06.254Z,97070.31
2023-04-06T19:46:09.258Z,97073.72
2023-04-06T19:50:13.024Z,97071.50
2023-04-06T19:54:13.312Z,97056.53
2023-04-06T19:58:14.491Z,97077.81
2023-04-06T20:02:15.282Z,96990.97
2023-04-06T20:06:19.405Z,97049.25
2023-04-06T20:10:20.856Z,97060.47
2023-04-06T20:14:22.738Z,97076.91
2023-04-06T20:18:23.637Z,97082.13
2023-04-06T20:22:26.579Z,97078.03
2023-04-06T20:26:27.310Z,97079.16
2023-04-06T20:30:27.808Z,97078.03
2023-04-06T20:34:29.152Z,97068.00
2023-04-06T20:38:42.931Z,97075.41
2023-04-06T20:42:43.418Z,97062.44
2023-04-06T20:46:46.093Z,97038.16
2023-04-06T20:50:46.714Z,97066.91
2023-04-06T20:54:51.042Z,97060.06
2023-04-06T20:58:52.130Z,97061.34
2023-04-06T21:02:52.639Z,97059.19
2023-04-06T21:06:53.609Z,97057.63
2023-04-06T21:10:56.594Z,97064.91
2023-04-06T21:14:59.451Z,97057.44
2023-04-06T21:18:59.783Z,97059.50
2023-04-06T21:23:00.297Z,97053.00
2023-04-06T21:27:03.396Z,97061.56
2023-04-06T21:31:04.182Z,97054.69
2023-04-06T21:35:05.404Z,97040.53
2023-04-06T21:39:05.823Z,97055.53
2023-04-06T21:43:09.276Z,97047.81
2023-04-06T21:47:09.686Z,97034.88
2023-04-06T21:51:10.456Z,97044.19
2023-04-06T21:55:12.271Z,97025.56
2023-04-06T21:59:16.235Z,97041.56
2023-04-06T22:03:16.902Z,97050.06
2023-04-06T22:07:17.732Z,97025.97
2023-04-06T22:11:18.262Z,97045.81
2023-04-06T22:15:21.949Z,97026.59
2023-04-06T22:19:22.233Z,97030.63
2023-04-06T22:23:22.764Z,97036.53
2023-04-06T22:27:23.055Z,97041.56
2023-04-06T22:31:26.282Z,97036.09
2023-04-06T22:35:26.627Z,97022.72
2023-04-06T22:39:26.970Z,97027.59
2023-04-06T22:43:27.190Z,97036.09
2023-04-06T22:47:30.032Z,97038.09
2023-04-06T22:51:30.569Z,97032.22
2023-04-06T22:55:32.290Z,97031.59
2023-04-06T22:59:32.498Z,97031.16
2023-04-06T23:03:35.328Z,97012.53
2023-04-06T23:07:35.811Z,97034.41
2023-04-06T23:11:36.019Z,97022.66
2023-04-06T23:15:36.466Z,97033.78
2023-04-06T23:19:39.428Z,97020.63
2023-04-06T23:23:39.993Z,97017.28
2023-04-06T23:27:40.194Z,97009.78
2023-04-06T23:31:40.514Z,97010.53
2023-04-06T23:35:43.494Z,97004.59
2023-04-06T23:39:44.999Z,96983.09
2023-04-06T23:43:45.319Z,97008.84
2023-04-06T23:47:46.094Z,97020.59
2023-04-06T23:51:49.061Z,97022.25
2023-04-06T23:55:49.355Z,97005.41
2023-04-06T23:59:49.654Z,96995.66
